createdAt,value
2018-11-07T00:02:49.364Z,9.60
2018-11-07T00:07:46.925Z,9.39
2018-11-07T00:12:44.311Z,9.66
2018-11-07T00:17:42.026Z,9.27
2018-11-07T00:22:39.772Z,9.04
2018-11-07T00:27:37.268Z,9.19
2018-11-07T00:32:34.703Z,8.72
2018-11-07T00:37:32.132Z,8.76
2018-11-07T00:42:29.630Z,9.29
2018-11-07T00:47:27.443Z,9.12
2018-11-07T00:52:24.879Z,9.16
2018-11-07T00:57:22.307Z,9.03
2018-11-07T01:02:19.908Z,8.93
2018-11-07T01:07:17.331Z,8.69
2018-11-07T01:12:14.763Z,8.65
2018-11-07T01:17:12.197Z,8.43
2018-11-07T01:22:09.693Z,8.81
2018-11-07T01:27:07.138Z,8.41
2018-11-07T01:32:04.703Z,8.27
2018-11-07T01:37:02.136Z,8.18
2018-11-07T01:41:59.657Z,8.66
2018-11-07T01:46:58.112Z,8.44
2018-11-07T01:51:55.553Z,8.42
2018-11-07T01:56:53.074Z,8.27
2018-11-07T02:01:50.520Z,8.52
2018-11-07T02:06:47.960Z,8.39
2018-11-07T02:11:45.423Z,8.71
2018-11-07T02:16:44.226Z,8.30
2018-11-07T02:21:41.667Z,8.38
2018-11-07T02:26:39.107Z,8.05
2018-11-07T02:31:36.568Z,7.96
2018-11-07T02:36:34.025Z,8.28
2018-11-07T02:41:31.466Z,8.06
2018-11-07T02:46:30.079Z,7.59
2018-11-07T02:51:27.517Z,7.67
2018-11-07T02:56:24.997Z,7.53
2018-11-07T03:01:22.477Z,7.88
2018-11-07T03:06:19.968Z,7.77
2018-11-07T03:11:17.401Z,7.80
2018-11-07T03:16:17.707Z,7.69
2018-11-07T03:21:15.302Z,7.63
2018-11-07T03:26:12.746Z,8.29
2018-11-07T03:31:10.165Z,8.04
2018-11-07T03:36:07.597Z,7.79
2018-11-07T03:41:05.149Z,7.98
2018-11-07T03:46:08.560Z,7.77
2018-11-07T03:51:06.062Z,8.15
2018-11-07T03:56:03.513Z,8.04
2018-11-07T04:01:00.972Z,7.95
2018-11-07T04:05:58.408Z,8.56
2018-11-07T04:10:55.872Z,8.24
2018-11-07T04:16:02.794Z,8.09
2018-11-07T04:21:00.287Z,7.96
2018-11-07T04:25:57.755Z,8.09
2018-11-07T04:30:55.193Z,8.30
2018-11-07T04:35:52.722Z,8.20
2018-11-07T04:40:50.228Z,8.27
2018-11-07T04:45:48.442Z,8.25
2018-11-07T04:50:45.936Z,8.43
2018-11-07T04:55:43.423Z,8.39
2018-11-07T05:00:40.845Z,8.64
2018-11-07T05:05:38.271Z,7.97
2018-11-07T05:10:35.696Z,8.18
2018-11-07T05:15:33.133Z,8.10
2018-11-07T05:20:30.568Z,8.02
2018-11-07T05:25:28.065Z,7.50
2018-11-07T05:30:25.497Z,7.36
2018-11-07T05:35:22.916Z,7.48
2018-11-07T05:40:20.365Z,7.30
2018-11-07T05:45:17.802Z,7.01
2018-11-07T05:50:15.266Z,7.02
2018-11-07T05:55:12.738Z,7.21
2018-11-07T06:00:11.375Z,7.03
2018-11-07T06:05:09.965Z,7.06
2018-11-07T06:10:09.684Z,6.85
2018-11-07T06:15:08.413Z,7.02
2018-11-07T06:20:06.713Z,7.22
2018-11-07T06:25:04.864Z,7.25
2018-11-07T06:30:02.505Z,7.38
2018-11-07T06:34:59.971Z,7.37
2018-11-07T06:39:57.509Z,7.78
2018-11-07T06:44:54.936Z,7.86
2018-11-07T06:49:52.370Z,8.06
2018-11-07T06:54:49.826Z,8.25
2018-11-07T06:59:47.305Z,8.29
2018-11-07T07:04:44.810Z,8.33
2018-11-07T07:09:42.334Z,8.56
2018-11-07T07:14:40.028Z,9.01
2018-11-07T07:19:37.485Z,8.99
2018-11-07T07:24:34.928Z,8.80
2018-11-07T07:29:32.383Z,8.67
2018-11-07T07:34:29.902Z,8.61
2018-11-07T07:39:27.341Z,8.76
2018-11-07T07:44:24.799Z,9.09
2018-11-07T07:49:22.287Z,9.51
2018-11-07T07:54:19.713Z,10.06
2018-11-07T07:59:17.265Z,10.31
2018-11-07T08:04:14.868Z,10.64
2018-11-07T08:09:13.514Z,10.81
2018-11-07T08:14:11.074Z,10.88
2018-11-07T08:19:09.245Z,11.05
2018-11-07T08:24:06.720Z,11.33
2018-11-07T08:29:04.296Z,11.41
2018-11-07T08:34:01.723Z,11.60
2018-11-07T08:38:59.176Z,11.74
2018-11-07T08:43:56.653Z,11.83
2018-11-07T08:48:54.163Z,11.97
2018-11-07T08:53:51.630Z,12.04
2018-11-07T08:58:49.140Z,12.33
2018-11-07T09:03:46.633Z,12.47
2018-11-07T09:08:44.169Z,12.66
2018-11-07T09:13:41.682Z,12.91
2018-11-07T09:18:39.168Z,13.07
2018-11-07T09:23:36.711Z,13.28
2018-11-07T09:28:34.186Z,13.50
2018-11-07T09:33:31.677Z,13.70
2018-11-07T09:38:29.122Z,13.76
2018-11-07T09:43:26.592Z,13.77
2018-11-07T09:48:24.148Z,13.97
2018-11-07T09:53:21.632Z,14.13
2018-11-07T09:58:19.101Z,14.37
2018-11-07T10:03:16.554Z,14.45
2018-11-07T10:08:14.022Z,14.66
2018-11-07T10:13:11.510Z,14.76
2018-11-07T10:18:08.966Z,14.93
2018-11-07T10:23:06.441Z,15.13
2018-11-07T10:28:04.488Z,15.18
2018-11-07T10:33:01.418Z,15.29
2018-11-07T10:37:59.045Z,15.52
2018-11-07T10:42:56.467Z,15.71
2018-11-07T10:47:55.217Z,15.83
2018-11-07T10:52:54.334Z,15.83
2018-11-07T10:57:53.920Z,15.93
2018-11-07T11:02:57.081Z,16.09
2018-11-07T11:07:54.692Z,16.15
2018-11-07T11:12:52.217Z,16.35
2018-11-07T11:17:49.712Z,16.41
2018-11-07T11:22:47.201Z,16.59
2018-11-07T11:27:44.755Z,16.64
2018-11-07T11:32:42.239Z,16.77
2018-11-07T11:37:40.143Z,17.09
2018-11-07T11:42:37.594Z,16.99
2018-11-07T11:47:35.111Z,17.13
2018-11-07T11:52:32.762Z,17.34
2018-11-07T11:57:30.317Z,17.21
2018-11-07T12:02:27.826Z,17.48
2018-11-07T12:07:25.329Z,17.60
2018-11-07T12:12:22.834Z,17.63
2018-11-07T12:17:20.415Z,17.49
2018-11-07T12:22:17.930Z,17.53
2018-11-07T12:27:15.424Z,17.51
2018-11-07T12:32:13.806Z,17.49
2018-11-07T12:37:11.281Z,17.50
2018-11-07T12:42:12.964Z,17.28
2018-11-07T12:47:10.513Z,17.41
2018-11-07T12:52:08.017Z,17.32
2018-11-07T12:57:05.576Z,17.28
2018-11-07T13:02:03.160Z,17.27
2018-11-07T13:07:00.718Z,17.24
2018-11-07T13:11:58.288Z,17.19
2018-11-07T13:17:01.076Z,17.02
2018-11-07T13:21:58.587Z,16.88
2018-11-07T13:26:56.098Z,17.05
2018-11-07T13:31:53.557Z,16.93
2018-11-07T13:36:51.163Z,16.91
2018-11-07T13:41:48.730Z,16.99
2018-11-07T13:46:47.208Z,16.77
2018-11-07T13:51:44.658Z,16.79
2018-11-07T13:56:42.188Z,16.80
2018-11-07T14:01:39.668Z,16.84
2018-11-07T14:06:37.196Z,16.82
2018-11-07T14:11:34.661Z,16.68
2018-11-07T14:16:33.228Z,16.49
2018-11-07T14:21:30.733Z,16.49
2018-11-07T14:26:28.273Z,16.48
2018-11-07T14:31:25.866Z,16.29
2018-11-07T14:36:23.479Z,16.09
2018-11-07T14:41:20.928Z,15.86
2018-11-07T14:46:28.037Z,15.79
2018-11-07T14:51:25.568Z,15.80
2018-11-07T14:56:23.027Z,15.77
2018-11-07T15:01:20.548Z,15.83
2018-11-07T15:06:18.081Z,15.70
2018-11-07T15:11:15.614Z,15.57
2018-11-07T15:16:15.444Z,15.30
2018-11-07T15:21:12.915Z,15.18
2018-11-07T15:26:10.339Z,14.90
2018-11-07T15:31:07.767Z,14.71
2018-11-07T15:36:05.288Z,14.47
2018-11-07T15:41:02.735Z,14.30
2018-11-07T15:46:07.312Z,14.13
2018-11-07T15:51:11.746Z,13.96
2018-11-07T15:56:09.410Z,13.98
2018-11-07T16:01:06.851Z,13.73
2018-11-07T16:06:04.327Z,13.72
2018-11-07T16:11:01.679Z,13.61
2018-11-07T16:16:12.453Z,13.48
2018-11-07T16:21:09.885Z,13.45
2018-11-07T16:26:07.277Z,13.44
2018-11-07T16:31:05.715Z,13.26
2018-11-07T16:36:03.091Z,13.28
2018-11-07T16:41:00.518Z,13.14
2018-11-07T16:46:05.827Z,13.00
2018-11-07T16:51:03.297Z,13.04
2018-11-07T16:56:00.669Z,13.09
2018-11-07T17:00:58.120Z,13.04
2018-11-07T17:05:55.479Z,12.98
2018-11-07T17:10:52.898Z,12.85
2018-11-07T17:15:52.337Z,12.81
2018-11-07T17:20:49.912Z,12.81
2018-11-07T17:25:47.275Z,12.67
2018-11-07T17:30:44.654Z,12.71
2018-11-07T17:35:42.055Z,12.68
2018-11-07T17:40:39.502Z,12.70
2018-11-07T17:45:36.928Z,12.69
2018-11-07T17:50:34.342Z,12.70
2018-11-07T17:55:31.742Z,12.76
2018-11-07T18:00:32.718Z,12.69
2018-11-07T18:05:30.190Z,12.61
2018-11-07T18:10:27.625Z,12.70
2018-11-07T18:15:25.094Z,12.72
2018-11-07T18:21:25.737Z,12.68
2018-11-07T18:26:23.357Z,12.70
2018-11-07T18:31:20.814Z,12.70
2018-11-07T18:36:18.191Z,12.75
2018-11-07T18:41:15.691Z,12.76
2018-11-07T18:46:19.562Z,12.92
2018-11-07T18:51:17.198Z,13.05
2018-11-07T18:56:14.573Z,13.05
2018-11-07T19:01:12.039Z,13.15
2018-11-07T19:06:09.395Z,13.19
2018-11-07T19:11:06.901Z,13.05
2018-11-07T19:16:13.153Z,13.10
2018-11-07T19:21:10.590Z,13.15
2018-11-07T19:26:09.279Z,13.00
2018-11-07T19:31:09.005Z,13.07
2018-11-07T19:36:06.491Z,13.01
2018-11-07T19:41:04.235Z,13.06
2018-11-07T19:46:06.780Z,13.00
2018-11-07T19:51:04.941Z,13.07
2018-11-07T19:56:02.354Z,12.99
2018-11-07T20:00:59.918Z,13.07
2018-11-07T20:05:57.310Z,12.90
2018-11-07T20:10:55.022Z,12.80
2018-11-07T20:15:52.482Z,12.78
2018-11-07T20:20:49.907Z,12.69
2018-11-07T20:25:47.269Z,12.64
2018-11-07T20:30:44.789Z,12.58
2018-11-07T20:35:43.752Z,12.65
2018-11-07T20:40:41.330Z,12.67
2018-11-07T20:45:39.096Z,12.60
2018-11-07T20:50:36.636Z,12.52
2018-11-07T20:55:34.032Z,12.45
2018-11-07T21:00:31.778Z,12.50
2018-11-07T21:05:29.200Z,12.49
2018-11-07T21:10:26.670Z,12.51
2018-11-07T21:15:24.160Z,12.46
2018-11-07T21:20:22.691Z,12.43
2018-11-07T21:25:20.223Z,12.30
2018-11-07T21:30:19.593Z,12.42
2018-11-07T21:35:17.277Z,12.31
2018-11-07T21:40:15.953Z,12.11
2018-11-07T21:45:14.247Z,12.08
2018-11-07T21:50:13.438Z,12.07
2018-11-07T21:55:10.862Z,12.03
2018-11-07T22:00:14.457Z,11.91
2018-11-07T22:05:12.901Z,11.95
2018-11-07T22:10:11.549Z,11.91
2018-11-07T22:15:09.623Z,11.74
2018-11-07T22:20:09.870Z,11.75
2018-11-07T22:25:07.636Z,11.79
2018-11-07T22:30:08.094Z,11.88
2018-11-07T22:35:06.547Z,11.79
2018-11-07T22:40:04.739Z,11.79
2018-11-07T22:45:04.845Z,11.88
2018-11-07T22:50:06.260Z,11.82
2018-11-07T22:55:06.387Z,12.05
2018-11-07T23:00:14.577Z,12.04
2018-11-07T23:05:13.260Z,11.90
2018-11-07T23:10:11.957Z,11.87
2018-11-07T23:15:10.865Z,11.78
2018-11-07T23:20:12.853Z,11.87
2018-11-07T23:25:15.053Z,12.02
2018-11-07T23:30:15.897Z,11.83
2018-11-07T23:35:20.418Z,11.88
2018-11-07T23:40:24.796Z,11.86
2018-11-07T23:45:23.256Z,11.83
2018-11-07T23:50:26.540Z,11.99
2018-11-07T23:55:28.081Z,12.01
